sensor_id;sensor_type;location;lat;lon;timestamp;pressure;altitude;pressure_sealevel;temperature;humidity
69707;BME280;56975;55.726;37.566;2023-09-07T00:00:00;100170.0;;;11.0;67.7
69707;BME280;56975;55.726;37.566;2023-09-07T00:05:00;100170.0;;;11.0;67.7
69707;BME280;56975;55.726;37.566;2023-09-07T00:10:00;100180.0;;;10.8;68.4
69707;BME280;56975;55.726;37.566;2023-09-07T00:15:00;100190.0;;;10.7;69.0
69707;BME280;56975;55.726;37.566;2023-09-07T00:20:00;100180.0;;;11.0;67.8
69707;BME280;56975;55.726;37.566;2023-09-07T00:25:00;100190.0;;;10.8;68.8
69707;BME280;56975;55.726;37.566;2023-09-07T00:30:00;100200.0;;;10.5;69.7
69707;BME280;56975;55.726;37.566;2023-09-07T00:35:00;100190.0;;;10.9;69.1
69707;BME280;56975;55.726;37.566;2023-09-07T00:40:00;100200.0;;;10.9;69.5
69707;BME280;56975;55.726;37.566;2023-09-07T00:45:00;100200.0;;;11.0;69.7
69707;BME280;56975;55.726;37.566;2023-09-07T00:50:00;100200.0;;;10.4;72.3
69707;BME280;56975;55.726;37.566;2023-09-07T00:55:01;100210.0;;;10.6;71.9
69707;BME280;56975;55.726;37.566;2023-09-07T01:00:00;100210.0;;;10.2;74.2
69707;BME280;56975;55.726;37.566;2023-09-07T01:05:01;100220.0;;;10.2;74.5
69707;BME280;56975;55.726;37.566;2023-09-07T01:10:01;100230.0;;;10.2;75.2
69707;BME280;56975;55.726;37.566;2023-09-07T01:15:00;100230.0;;;10.1;76.2
69707;BME280;56975;55.726;37.566;2023-09-07T01:20:04;100240.0;;;9.7;78.6
69707;BME280;56975;55.726;37.566;2023-09-07T01:25:00;100240.0;;;9.7;79.2
69707;BME280;56975;55.726;37.566;2023-09-07T01:30:00;100240.0;;;9.8;79.3
69707;BME280;56975;55.726;37.566;2023-09-07T01:35:01;100240.0;;;9.8;79.8
69707;BME280;56975;55.726;37.566;2023-09-07T01:40:00;100240.0;;;9.6;80.5
69707;BME280;56975;55.726;37.566;2023-09-07T01:45:00;100240.0;;;9.7;81.0
69707;BME280;56975;55.726;37.566;2023-09-07T01:50:00;100250.0;;;9.5;82.4
69707;BME280;56975;55.726;37.566;2023-09-07T01:55:00;100250.0;;;9.6;82.6
69707;BME280;56975;55.726;37.566;2023-09-07T02:00:00;100260.0;;;9.7;82.4
69707;BME280;56975;55.726;37.566;2023-09-07T02:05:00;100260.0;;;9.7;82.8
69707;BME280;56975;55.726;37.566;2023-09-07T02:10:01;100270.0;;;9.7;83.0
69707;BME280;56975;55.726;37.566;2023-09-07T02:15:01;100270.0;;;9.5;84.3
69707;BME280;56975;55.726;37.566;2023-09-07T02:20:00;100270.0;;;9.5;84.5
69707;BME280;56975;55.726;37.566;2023-09-07T02:25:00;100270.0;;;9.6;83.8
69707;BME280;56975;55.726;37.566;2023-09-07T02:30:00;100280.0;;;9.5;84.1
69707;BME280;56975;55.726;37.566;2023-09-07T02:35:00;100280.0;;;9.6;83.7
69707;BME280;56975;55.726;37.566;2023-09-07T02:40:00;100290.0;;;9.5;83.9
69707;BME280;56975;55.726;37.566;2023-09-07T02:45:00;100290.0;;;9.3;84.5
69707;BME280;56975;55.726;37.566;2023-09-07T02:50:00;100290.0;;;9.7;82.5
69707;BME280;56975;55.726;37.566;2023-09-07T02:55:00;100300.0;;;9.6;82.9
69707;BME280;56975;55.726;37.566;2023-09-07T03:00:00;100310.0;;;9.6;82.1
69707;BME280;56975;55.726;37.566;2023-09-07T03:05:00;100310.0;;;9.4;82.7
69707;BME280;56975;55.726;37.566;2023-09-07T03:10:00;100310.0;;;9.2;83.9
69707;BME280;56975;55.726;37.566;2023-09-07T03:15:00;100310.0;;;9.4;82.8
69707;BME280;56975;55.726;37.566;2023-09-07T03:20:00;100320.0;;;9.8;81.3
69707;BME280;56975;55.726;37.566;2023-09-07T03:25:00;100320.0;;;9.7;80.7
69707;BME280;56975;55.726;37.566;2023-09-07T03:30:00;100320.0;;;9.6;81.8
69707;BME280;56975;55.726;37.566;2023-09-07T03:35:00;100320.0;;;9.4;82.5
69707;BME280;56975;55.726;37.566;2023-09-07T03:40:00;100330.0;;;9.5;82.6
69707;BME280;56975;55.726;37.566;2023-09-07T03:45:00;100330.0;;;9.6;82.7
69707;BME280;56975;55.726;37.566;2023-09-07T03:50:00;100350.0;;;9.8;81.9
69707;BME280;56975;55.726;37.566;2023-09-07T03:55:00;100350.0;;;9.8;82.2
69707;BME280;56975;55.726;37.566;2023-09-07T04:00:00;100350.0;;;9.8;82.0
69707;BME280;56975;55.726;37.566;2023-09-07T04:05:00;100360.0;;;10.3;79.2
69707;BME280;56975;55.726;37.566;2023-09-07T04:10:05;100350.0;;;10.2;79.7
69707;BME280;56975;55.726;37.566;2023-09-07T04:15:00;100360.0;;;10.1;79.6
69707;BME280;56975;55.726;37.566;2023-09-07T04:20:00;100370.0;;;10.4;78.6
69707;BME280;56975;55.726;37.566;2023-09-07T04:25:00;100380.0;;;10.3;78.3
69707;BME280;56975;55.726;37.566;2023-09-07T04:30:00;100390.0;;;10.6;76.7
69707;BME280;56975;55.726;37.566;2023-09-07T04:35:00;100390.0;;;10.6;77.2
69707;BME280;56975;55.726;37.566;2023-09-07T04:40:00;100390.0;;;10.7;76.4
69707;BME280;56975;55.726;37.566;2023-09-07T04:45:00;100390.0;;;10.8;75.2
69707;BME280;56975;55.726;37.566;2023-09-07T04:50:00;100400.0;;;10.6;76.2
69707;BME280;56975;55.726;37.566;2023-09-07T04:55:00;100410.0;;;10.7;75.7
69707;BME280;56975;55.726;37.566;2023-09-07T05:00:00;100420.0;;;11.1;73.6
69707;BME280;56975;55.726;37.566;2023-09-07T05:05:00;100410.0;;;10.8;75.9
69707;BME280;56975;55.726;37.566;2023-09-07T05:10:00;100410.0;;;10.9;74.6
69707;BME280;56975;55.726;37.566;2023-09-07T05:15:00;100410.0;;;11.3;73.0
69707;BME280;56975;55.726;37.566;2023-09-07T05:20:00;100410.0;;;11.2;72.4
69707;BME280;56975;55.726;37.566;2023-09-07T05:25:00;100410.0;;;11.3;72.7
69707;BME280;56975;55.726;37.566;2023-09-07T05:30:00;100420.0;;;11.4;71.6
69707;BME280;56975;55.726;37.566;2023-09-07T05:35:00;100410.0;;;11.6;71.3
69707;BME280;56975;55.726;37.566;2023-09-07T05:40:00;100420.0;;;11.6;71.6
69707;BME280;56975;55.726;37.566;2023-09-07T05:45:01;100410.0;;;11.6;71.4
69707;BME280;56975;55.726;37.566;2023-09-07T05:50:00;100420.0;;;12.1;70.0
69707;BME280;56975;55.726;37.566;2023-09-07T05:55:00;100420.0;;;12.6;68.0
69707;BME280;56975;55.726;37.566;2023-09-07T06:00:00;100420.0;;;12.2;69.0
69707;BME280;56975;55.726;37.566;2023-09-07T06:05:00;100430.0;;;12.3;68.9
69707;BME280;56975;55.726;37.566;2023-09-07T06:10:00;100440.0;;;12.2;68.4
69707;BME280;56975;55.726;37.566;2023-09-07T06:15:00;100430.0;;;12.2;69.2
69707;BME280;56975;55.726;37.566;2023-09-07T06:20:00;100440.0;;;12.4;68.5
69707;BME280;56975;55.726;37.566;2023-09-07T06:25:00;100440.0;;;12.2;68.4
69707;BME280;56975;55.726;37.566;2023-09-07T06:30:00;100460.0;;;12.4;69.3
69707;BME280;56975;55.726;37.566;2023-09-07T06:35:00;100450.0;;;12.4;68.6
69707;BME280;56975;55.726;37.566;2023-09-07T06:40:00;100450.0;;;12.4;68.5
69707;BME280;56975;55.726;37.566;2023-09-07T06:45:00;100460.0;;;12.3;69.6
69707;BME280;56975;55.726;37.566;2023-09-07T06:50:01;100460.0;;;12.7;66.8
69707;BME280;56975;55.726;37.566;2023-09-07T06:55:00;100460.0;;;12.9;66.4
69707;BME280;56975;55.726;37.566;2023-09-07T07:00:00;100460.0;;;13.1;64.6
69707;BME280;56975;55.726;37.566;2023-09-07T07:05:00;100460.0;;;12.9;64.1
69707;BME280;56975;55.726;37.566;2023-09-07T07:10:00;100470.0;;;12.7;64.7
69707;BME280;56975;55.726;37.566;2023-09-07T07:15:00;100470.0;;;13.2;61.6
69707;BME280;56975;55.726;37.566;2023-09-07T07:20:00;100470.0;;;13.4;61.4
69707;BME280;56975;55.726;37.566;2023-09-07T07:25:00;100480.0;;;13.5;61.6
69707;BME280;56975;55.726;37.566;2023-09-07T07:30:00;100470.0;;;13.6;61.8
69707;BME280;56975;55.726;37.566;2023-09-07T07:35:00;100480.0;;;14.1;59.0
69707;BME280;56975;55.726;37.566;2023-09-07T07:40:00;100480.0;;;13.9;58.5
69707;BME280;56975;55.726;37.566;2023-09-07T07:45:00;100480.0;;;14.2;57.4
69707;BME280;56975;55.726;37.566;2023-09-07T07:50:00;100480.0;;;14.7;55.6
69707;BME280;56975;55.726;37.566;2023-09-07T07:55:00;100480.0;;;14.5;56.6
69707;BME280;56975;55.726;37.566;2023-09-07T08:00:00;100470.0;;;15.6;52.4
69707;BME280;56975;55.726;37.566;2023-09-07T08:05:00;100470.0;;;15.1;54.3
69707;BME280;56975;55.726;37.566;2023-09-07T08:10:00;100460.0;;;15.6;52.6
69707;BME280;56975;55.726;37.566;2023-09-07T08:15:00;100470.0;;;16.5;50.6
69707;BME280;56975;55.726;37.566;2023-09-07T08:20:00;100460.0;;;17.2;48.4
69707;BME280;56975;55.726;37.566;2023-09-07T08:25:00;100460.0;;;17.5;46.7
69707;BME280;56975;55.726;37.566;2023-09-07T08:30:00;100460.0;;;17.2;47.3
69707;BME280;56975;55.726;37.566;2023-09-07T08:35:00;100460.0;;;17.5;46.4
69707;BME280;56975;55.726;37.566;2023-09-07T08:40:00;100460.0;;;17.7;45.9
69707;BME280;56975;55.726;37.566;2023-09-07T08:45:02;100460.0;;;17.6;45.2
69707;BME280;56975;55.726;37.566;2023-09-07T08:50:01;100460.0;;;18.4;43.8
69707;BME280;56975;55.726;37.566;2023-09-07T08:55:01;100460.0;;;18.0;43.5
69707;BME280;56975;55.726;37.566;2023-09-07T09:00:01;100450.0;;;17.0;44.5
69707;BME280;56975;55.726;37.566;2023-09-07T09:05:00;100460.0;;;18.9;39.8
69707;BME280;56975;55.726;37.566;2023-09-07T09:10:05;100460.0;;;18.7;37.8
69707;BME280;56975;55.726;37.566;2023-09-07T09:15:00;100450.0;;;19.3;37.4
69707;BME280;56975;55.726;37.566;2023-09-07T09:20:00;100450.0;;;18.7;38.2
69707;BME280;56975;55.726;37.566;2023-09-07T09:25:02;100450.0;;;17.6;39.7
69707;BME280;56975;55.726;37.566;2023-09-07T09:30:00;100460.0;;;19.3;37.4
69707;BME280;56975;55.726;37.566;2023-09-07T09:35:00;100460.0;;;20.1;35.1
69707;BME280;56975;55.726;37.566;2023-09-07T09:40:02;100470.0;;;18.8;36.5
69707;BME280;56975;55.726;37.566;2023-09-07T09:45:01;100460.0;;;19.8;34.8
69707;BME280;56975;55.726;37.566;2023-09-07T09:50:02;100450.0;;;20.2;35.1
69707;BME280;56975;55.726;37.566;2023-09-07T09:55:00;100450.0;;;20.6;33.6
69707;BME280;56975;55.726;37.566;2023-09-07T10:00:00;100450.0;;;18.9;36.4
69707;BME280;56975;55.726;37.566;2023-09-07T10:05:02;100440.0;;;20.1;34.2
69707;BME280;56975;55.726;37.566;2023-09-07T10:10:00;100440.0;;;20.9;32.8
69707;BME280;56975;55.726;37.566;2023-09-07T10:15:00;100440.0;;;19.6;35.5
69707;BME280;56975;55.726;37.566;2023-09-07T10:20:02;100450.0;;;20.4;33.5
69707;BME280;56975;55.726;37.566;2023-09-07T10:25:00;100460.0;;;18.8;35.4
69707;BME280;56975;55.726;37.566;2023-09-07T10:30:00;100450.0;;;18.1;36.6
69707;BME280;56975;55.726;37.566;2023-09-07T10:35:00;100440.0;;;20.1;34.7
69707;BME280;56975;55.726;37.566;2023-09-07T10:40:00;100440.0;;;20.4;33.8
69707;BME280;56975;55.726;37.566;2023-09-07T10:45:09;100440.0;;;21.8;32.6
69707;BME280;56975;55.726;37.566;2023-09-07T10:50:00;100440.0;;;23.1;28.4
69707;BME280;56975;55.726;37.566;2023-09-07T10:55:00;100450.0;;;22.9;28.7
69707;BME280;56975;55.726;37.566;2023-09-07T11:00:00;100440.0;;;25.1;26.4
69707;BME280;56975;55.726;37.566;2023-09-07T11:05:00;100450.0;;;24.0;27.9
69707;BME280;56975;55.726;37.566;2023-09-07T11:10:00;100430.0;;;22.2;31.4
69707;BME280;56975;55.726;37.566;2023-09-07T11:15:00;100440.0;;;24.3;28.3
69707;BME280;56975;55.726;37.566;2023-09-07T11:20:03;100430.0;;;21.2;32.8
69707;BME280;56975;55.726;37.566;2023-09-07T11:25:00;100430.0;;;23.1;29.0
69707;BME280;56975;55.726;37.566;2023-09-07T11:30:01;100430.0;;;19.4;34.5
69707;BME280;56975;55.726;37.566;2023-09-07T11:35:00;100430.0;;;19.5;35.2
69707;BME280;56975;55.726;37.566;2023-09-07T11:40:00;100430.0;;;20.9;34.0
69707;BME280;56975;55.726;37.566;2023-09-07T11:45:00;100430.0;;;22.5;31.7
69707;BME280;56975;55.726;37.566;2023-09-07T11:50:00;100430.0;;;24.1;28.7
69707;BME280;56975;55.726;37.566;2023-09-07T11:55:00;100430.0;;;26.1;25.8
69707;BME280;56975;55.726;37.566;2023-09-07T12:00:00;100430.0;;;24.7;27.2
69707;BME280;56975;55.726;37.566;2023-09-07T12:05:00;100430.0;;;25.7;24.6
69707;BME280;56975;55.726;37.566;2023-09-07T12:10:00;100430.0;;;24.0;27.4
69707;BME280;56975;55.726;37.566;2023-09-07T12:20:00;100420.0;;;24.8;26.0
69707;BME280;56975;55.726;37.566;2023-09-07T12:25:00;100430.0;;;24.6;24.7
69707;BME280;56975;55.726;37.566;2023-09-07T12:30:00;100420.0;;;24.5;25.3
69707;BME280;56975;55.726;37.566;2023-09-07T12:40:00;100420.0;;;26.7;23.1
69707;BME280;56975;55.726;37.566;2023-09-07T12:45:00;100410.0;;;25.3;24.7
69707;BME280;56975;55.726;37.566;2023-09-07T12:50:00;100410.0;;;25.3;24.9
69707;BME280;56975;55.726;37.566;2023-09-07T12:55:00;100410.0;;;23.3;27.5
69707;BME280;56975;55.726;37.566;2023-09-07T13:00:00;100410.0;;;21.0;30.3
69707;BME280;56975;55.726;37.566;2023-09-07T13:15:00;100400.0;;;22.5;28.8
69707;BME280;56975;55.726;37.566;2023-09-07T13:25:00;100390.0;;;18.9;34.7
69707;BME280;56975;55.726;37.566;2023-09-07T13:30:00;100390.0;;;19.3;34.3
69707;BME280;56975;55.726;37.566;2023-09-07T13:35:00;100390.0;;;19.6;34.5
69707;BME280;56975;55.726;37.566;2023-09-07T13:40:00;100380.0;;;19.9;32.5
69707;BME280;56975;55.726;37.566;2023-09-07T13:45:00;100390.0;;;19.4;32.8
69707;BME280;56975;55.726;37.566;2023-09-07T13:50:00;100380.0;;;19.1;33.8
69707;BME280;56975;55.726;37.566;2023-09-07T13:55:00;100380.0;;;18.9;34.2
69707;BME280;56975;55.726;37.566;2023-09-07T14:00:00;100370.0;;;18.9;34.6
69707;BME280;56975;55.726;37.566;2023-09-07T14:05:00;100370.0;;;18.8;34.3
69707;BME280;56975;55.726;37.566;2023-09-07T14:10:00;100360.0;;;19.4;33.6
69707;BME280;56975;55.726;37.566;2023-09-07T14:20:00;100370.0;;;18.3;36.0
69707;BME280;56975;55.726;37.566;2023-09-07T14:25:00;100360.0;;;19.5;34.7
69707;BME280;56975;55.726;37.566;2023-09-07T14:30:00;100350.0;;;20.8;32.4
69707;BME280;56975;55.726;37.566;2023-09-07T14:35:00;100350.0;;;19.6;34.3
69707;BME280;56975;55.726;37.566;2023-09-07T14:40:00;100360.0;;;21.5;31.6
69707;BME280;56975;55.726;37.566;2023-09-07T14:45:00;100360.0;;;20.4;33.3
69707;BME280;56975;55.726;37.566;2023-09-07T14:50:00;100360.0;;;21.8;30.7
69707;BME280;56975;55.726;37.566;2023-09-07T14:55:00;100350.0;;;21.4;31.4
69707;BME280;56975;55.726;37.566;2023-09-07T15:00:00;100350.0;;;22.0;30.1
69707;BME280;56975;55.726;37.566;2023-09-07T15:05:00;100350.0;;;22.1;30.5
69707;BME280;56975;55.726;37.566;2023-09-07T15:10:00;100350.0;;;21.3;31.4
69707;BME280;56975;55.726;37.566;2023-09-07T15:15:00;100350.0;;;22.2;29.4
69707;BME280;56975;55.726;37.566;2023-09-07T15:20:00;100360.0;;;21.3;30.9
69707;BME280;56975;55.726;37.566;2023-09-07T15:25:00;100350.0;;;20.5;31.9
69707;BME280;56975;55.726;37.566;2023-09-07T15:30:00;100360.0;;;19.7;33.1
69707;BME280;56975;55.726;37.566;2023-09-07T15:35:00;100360.0;;;18.9;34.2
69707;BME280;56975;55.726;37.566;2023-09-07T15:40:00;100360.0;;;18.5;35.4
69707;BME280;56975;55.726;37.566;2023-09-07T15:45:00;100360.0;;;18.4;35.5
69707;BME280;56975;55.726;37.566;2023-09-07T15:50:00;100360.0;;;18.6;35.5
69707;BME280;56975;55.726;37.566;2023-09-07T15:55:00;100360.0;;;17.3;37.7
69707;BME280;56975;55.726;37.566;2023-09-07T16:00:00;100360.0;;;17.1;38.5
69707;BME280;56975;55.726;37.566;2023-09-07T16:05:02;100360.0;;;16.5;40.2
69707;BME280;56975;55.726;37.566;2023-09-07T16:10:00;100360.0;;;16.0;41.4
69707;BME280;56975;55.726;37.566;2023-09-07T16:15:00;100360.0;;;16.4;40.6
69707;BME280;56975;55.726;37.566;2023-09-07T16:20:00;100350.0;;;15.7;41.6
69707;BME280;56975;55.726;37.566;2023-09-07T16:25:00;100360.0;;;15.4;42.6
69707;BME280;56975;55.726;37.566;2023-09-07T16:30:00;100360.0;;;15.7;42.3
69707;BME280;56975;55.726;37.566;2023-09-07T16:35:00;100360.0;;;15.4;43.3
69707;BME280;56975;55.726;37.566;2023-09-07T16:40:00;100360.0;;;15.0;44.4
69707;BME280;56975;55.726;37.566;2023-09-07T16:45:00;100350.0;;;15.1;44.4
69707;BME280;56975;55.726;37.566;2023-09-07T16:50:00;100360.0;;;14.9;45.6
69707;BME280;56975;55.726;37.566;2023-09-07T16:55:00;100350.0;;;14.9;45.8
69707;BME280;56975;55.726;37.566;2023-09-07T17:00:00;100350.0;;;14.4;46.8
69707;BME280;56975;55.726;37.566;2023-09-07T17:05:00;100360.0;;;14.7;46.6
69707;BME280;56975;55.726;37.566;2023-09-07T17:10:01;100350.0;;;14.7;46.9
69707;BME280;56975;55.726;37.566;2023-09-07T17:15:00;100350.0;;;14.4;47.9
69707;BME280;56975;55.726;37.566;2023-09-07T17:20:00;100360.0;;;14.5;47.8
69707;BME280;56975;55.726;37.566;2023-09-07T17:25:00;100350.0;;;14.2;48.9
69707;BME280;56975;55.726;37.566;2023-09-07T17:30:00;100350.0;;;14.3;48.9
69707;BME280;56975;55.726;37.566;2023-09-07T17:35:00;100350.0;;;14.0;50.1
69707;BME280;56975;55.726;37.566;2023-09-07T17:40:00;100350.0;;;14.2;50.1
69707;BME280;56975;55.726;37.566;2023-09-07T17:45:00;100350.0;;;14.3;49.9
69707;BME280;56975;55.726;37.566;2023-09-07T17:50:00;100360.0;;;14.4;49.9
69707;BME280;56975;55.726;37.566;2023-09-07T17:55:00;100350.0;;;14.3;50.3
69707;BME280;56975;55.726;37.566;2023-09-07T18:00:01;100340.0;;;14.2;50.8
69707;BME280;56975;55.726;37.566;2023-09-07T18:05:00;100340.0;;;14.2;50.7
69707;BME280;56975;55.726;37.566;2023-09-07T18:10:00;100340.0;;;14.1;51.5
69707;BME280;56975;55.726;37.566;2023-09-07T18:15:00;100340.0;;;14.1;51.6
69707;BME280;56975;55.726;37.566;2023-09-07T18:20:00;100330.0;;;14.0;52.0
69707;BME280;56975;55.726;37.566;2023-09-07T18:25:00;100340.0;;;14.2;51.8
69707;BME280;56975;55.726;37.566;2023-09-07T18:30:00;100330.0;;;13.9;52.5
69707;BME280;56975;55.726;37.566;2023-09-07T18:35:00;100320.0;;;14.2;51.9
69707;BME280;56975;55.726;37.566;2023-09-07T18:40:00;100320.0;;;13.8;53.4
69707;BME280;56975;55.726;37.566;2023-09-07T18:45:00;100320.0;;;14.1;52.7
69707;BME280;56975;55.726;37.566;2023-09-07T18:50:00;100320.0;;;14.1;52.7
69707;BME280;56975;55.726;37.566;2023-09-07T18:55:01;100320.0;;;14.0;53.2
69707;BME280;56975;55.726;37.566;2023-09-07T19:00:00;100310.0;;;14.1;53.0
69707;BME280;56975;55.726;37.566;2023-09-07T19:05:00;100310.0;;;14.0;54.1
69707;BME280;56975;55.726;37.566;2023-09-07T19:10:00;100300.0;;;13.8;54.4
69707;BME280;56975;55.726;37.566;2023-09-07T19:15:00;100290.0;;;14.0;53.7
69707;BME280;56975;55.726;37.566;2023-09-07T19:20:00;100290.0;;;14.0;54.0
69707;BME280;56975;55.726;37.566;2023-09-07T19:25:00;100290.0;;;14.0;54.1
69707;BME280;56975;55.726;37.566;2023-09-07T19:30:00;100280.0;;;14.0;54.2
69707;BME280;56975;55.726;37.566;2023-09-07T19:35:00;100280.0;;;14.2;53.9
69707;BME280;56975;55.726;37.566;2023-09-07T19:40:00;100280.0;;;14.0;54.5
69707;BME280;56975;55.726;37.566;2023-09-07T19:45:00;100290.0;;;14.0;55.2
69707;BME280;56975;55.726;37.566;2023-09-07T19:50:00;100280.0;;;13.9;55.3
69707;BME280;56975;55.726;37.566;2023-09-07T19:55:00;100290.0;;;13.9;55.3
69707;BME280;56975;55.726;37.566;2023-09-07T20:00:00;100280.0;;;13.6;56.2
69707;BME280;56975;55.726;37.566;2023-09-07T20:05:00;100270.0;;;13.7;56.5
69707;BME280;56975;55.726;37.566;2023-09-07T20:10:00;100270.0;;;13.5;56.9
69707;BME280;56975;55.726;37.566;2023-09-07T20:15:00;100260.0;;;13.6;57.7
69707;BME280;56975;55.726;37.566;2023-09-07T20:20:00;100260.0;;;13.8;57.9
69707;BME280;56975;55.726;37.566;2023-09-07T20:25:00;100240.0;;;14.0;57.3
69707;BME280;56975;55.726;37.566;2023-09-07T20:30:00;100250.0;;;13.6;59.2
69707;BME280;56975;55.726;37.566;2023-09-07T20:35:00;100240.0;;;13.6;59.3
69707;BME280;56975;55.726;37.566;2023-09-07T20:40:00;100240.0;;;13.7;59.3
69707;BME280;56975;55.726;37.566;2023-09-07T20:45:00;100240.0;;;13.4;60.3
69707;BME280;56975;55.726;37.566;2023-09-07T20:50:00;100240.0;;;13.5;59.6
69707;BME280;56975;55.726;37.566;2023-09-07T20:55:00;100240.0;;;13.2;61.3
69707;BME280;56975;55.726;37.566;2023-09-07T21:00:00;100230.0;;;13.2;62.1
69707;BME280;56975;55.726;37.566;2023-09-07T21:05:00;100230.0;;;12.9;63.9
69707;BME280;56975;55.726;37.566;2023-09-07T21:10:00;100220.0;;;13.2;62.4
69707;BME280;56975;55.726;37.566;2023-09-07T21:15:00;100210.0;;;12.9;63.2
69707;BME280;56975;55.726;37.566;2023-09-07T21:20:00;100220.0;;;12.6;64.4
69707;BME280;56975;55.726;37.566;2023-09-07T21:25:00;100220.0;;;13.1;62.7
69707;BME280;56975;55.726;37.566;2023-09-07T21:30:02;100210.0;;;13.0;63.5
69707;BME280;56975;55.726;37.566;2023-09-07T21:35:00;100210.0;;;13.2;64.3
69707;BME280;56975;55.726;37.566;2023-09-07T21:40:00;100210.0;;;13.3;63.7
69707;BME280;56975;55.726;37.566;2023-09-07T21:45:00;100210.0;;;13.1;64.2
69707;BME280;56975;55.726;37.566;2023-09-07T21:50:00;100210.0;;;13.2;64.8
69707;BME280;56975;55.726;37.566;2023-09-07T21:55:00;100190.0;;;13.2;64.9
69707;BME280;56975;55.726;37.566;2023-09-07T22:00:00;100180.0;;;12.7;66.6
69707;BME280;56975;55.726;37.566;2023-09-07T22:05:00;100180.0;;;13.0;65.4
69707;BME280;56975;55.726;37.566;2023-09-07T22:10:00;100180.0;;;12.6;67.1
69707;BME280;56975;55.726;37.566;2023-09-07T22:15:00;100170.0;;;12.6;66.8
69707;BME280;56975;55.726;37.566;2023-09-07T22:20:00;100170.0;;;12.7;66.5
69707;BME280;56975;55.726;37.566;2023-09-07T22:25:00;100170.0;;;12.4;67.8
69707;BME280;56975;55.726;37.566;2023-09-07T22:30:00;100170.0;;;12.5;67.6
69707;BME280;56975;55.726;37.566;2023-09-07T22:35:00;100160.0;;;12.4;67.5
69707;BME280;56975;55.726;37.566;2023-09-07T22:40:00;100160.0;;;12.5;67.1
69707;BME280;56975;55.726;37.566;2023-09-07T22:45:00;100160.0;;;12.4;67.7
69707;BME280;56975;55.726;37.566;2023-09-07T22:50:00;100160.0;;;12.4;67.3
69707;BME280;56975;55.726;37.566;2023-09-07T22:55:02;100160.0;;;12.7;66.0
69707;BME280;56975;55.726;37.566;2023-09-07T23:00:00;100150.0;;;12.4;66.8
69707;BME280;56975;55.726;37.566;2023-09-07T23:05:00;100140.0;;;12.3;67.5
69707;BME280;56975;55.726;37.566;2023-09-07T23:10:00;100140.0;;;12.5;67.2
69707;BME280;56975;55.726;37.566;2023-09-07T23:15:00;100130.0;;;12.4;67.2
69707;BME280;56975;55.726;37.566;2023-09-07T23:20:00;100130.0;;;12.3;67.6
69707;BME280;56975;55.726;37.566;2023-09-07T23:25:00;100120.0;;;12.6;66.4
69707;BME280;56975;55.726;37.566;2023-09-07T23:30:01;100120.0;;;12.6;66.2
69707;BME280;56975;55.726;37.566;2023-09-07T23:35:00;100120.0;;;12.2;67.5
69707;BME280;56975;55.726;37.566;2023-09-07T23:40:02;100120.0;;;12.7;65.5
69707;BME280;56975;55.726;37.566;2023-09-07T23:45:00;100120.0;;;12.3;67.3
69707;BME280;56975;55.726;37.566;2023-09-07T23:50:00;100120.0;;;12.3;67.3
69707;BME280;56975;55.726;37.566;2023-09-07T23:55:01;100110.0;;;12.2;67.5
